sensor_id;sensor_type;location;lat;lon;timestamp;pressure;altitude;pressure_sealevel;temperature;humidity
12219;BME280;6172;42.646;23.344;2023-01-26T00:02:17;95086.63;;;-2.86;100.00
12219;BME280;6172;42.646;23.344;2023-01-26T00:04:45;95102.16;;;-2.79;100.00
12219;BME280;6172;42.646;23.344;2023-01-26T00:07:13;95087.25;;;-2.89;100.00
12219;BME280;6172;42.646;23.344;2023-01-26T00:09:45;95089.59;;;-2.79;100.00
12219;BME280;6172;42.646;23.344;2023-01-26T00:12:17;95094.47;;;-2.81;100.00
12219;BME280;6172;42.646;23.344;2023-01-26T00:14:45;95090.69;;;-2.80;100.00
12219;BME280;6172;42.646;23.344;2023-01-26T00:17:28;95097.50;;;-2.91;100.00
12219;BME280;6172;42.646;23.344;2023-01-26T00:19:57;95085.44;;;-3.05;100.00
12219;BME280;6172;42.646;23.344;2023-01-26T00:22:27;95096.09;;;-2.97;100.00
12219;BME280;6172;42.646;23.344;2023-01-26T00:24:55;95101.06;;;-2.87;100.00
12219;BME280;6172;42.646;23.344;2023-01-26T00:27:24;95094.00;;;-2.83;100.00
12219;BME280;6172;42.646;23.344;2023-01-26T00:29:52;95090.22;;;-2.82;100.00
12219;BME280;6172;42.646;23.344;2023-01-26T00:32:23;95076.28;;;-2.87;100.00
12219;BME280;6172;42.646;23.344;2023-01-26T00:34:51;95073.78;;;-2.84;100.00
12219;BME280;6172;42.646;23.344;2023-01-26T00:37:24;95063.75;;;-2.87;100.00
12219;BME280;6172;42.646;23.344;2023-01-26T00:39:52;95070.78;;;-2.82;100.00
12219;BME280;6172;42.646;23.344;2023-01-26T00:42:20;95068.44;;;-2.84;100.00
12219;BME280;6172;42.646;23.344;2023-01-26T00:44:54;95053.22;;;-2.92;100.00
12219;BME280;6172;42.646;23.344;2023-01-26T00:47:24;95056.69;;;-2.91;100.00
12219;BME280;6172;42.646;23.344;2023-01-26T00:49:52;95067.78;;;-2.81;100.00
12219;BME280;6172;42.646;23.344;2023-01-26T00:52:20;95066.25;;;-2.90;100.00
12219;BME280;6172;42.646;23.344;2023-01-26T00:54:47;95050.75;;;-2.97;100.00
12219;BME280;6172;42.646;23.344;2023-01-26T00:57:16;95046.06;;;-3.00;100.00
12219;BME280;6172;42.646;23.344;2023-01-26T00:59:45;95045.88;;;-2.95;100.00
12219;BME280;6172;42.646;23.344;2023-01-26T01:02:14;95038.22;;;-3.05;100.00
12219;BME280;6172;42.646;23.344;2023-01-26T01:04:45;95043.09;;;-3.07;100.00
12219;BME280;6172;42.646;23.344;2023-01-26T01:07:16;95038.63;;;-2.86;100.00
12219;BME280;6172;42.646;23.344;2023-01-26T01:09:47;95032.56;;;-3.03;100.00
12219;BME280;6172;42.646;23.344;2023-01-26T01:12:19;95038.69;;;-3.03;100.00
12219;BME280;6172;42.646;23.344;2023-01-26T01:14:54;95034.44;;;-2.95;100.00
12219;BME280;6172;42.646;23.344;2023-01-26T01:17:37;95040.75;;;-3.08;100.00
12219;BME280;6172;42.646;23.344;2023-01-26T01:20:09;95033.38;;;-3.03;100.00
12219;BME280;6172;42.646;23.344;2023-01-26T01:22:41;95028.03;;;-3.03;100.00
12219;BME280;6172;42.646;23.344;2023-01-26T01:25:14;95023.03;;;-3.04;100.00
12219;BME280;6172;42.646;23.344;2023-01-26T01:27:49;95029.59;;;-3.02;100.00
12219;BME280;6172;42.646;23.344;2023-01-26T01:30:26;95015.63;;;-2.99;100.00
12219;BME280;6172;42.646;23.344;2023-01-26T01:32:57;95024.22;;;-2.93;100.00
12219;BME280;6172;42.646;23.344;2023-01-26T01:35:34;95021.72;;;-2.90;100.00
12219;BME280;6172;42.646;23.344;2023-01-26T01:38:15;95018.16;;;-3.11;100.00
12219;BME280;6172;42.646;23.344;2023-01-26T01:40:49;95012.47;;;-3.01;100.00
12219;BME280;6172;42.646;23.344;2023-01-26T01:43:18;95018.94;;;-3.02;100.00
12219;BME280;6172;42.646;23.344;2023-01-26T01:45:48;95010.13;;;-2.94;100.00
12219;BME280;6172;42.646;23.344;2023-01-26T01:48:22;95016.09;;;-2.97;100.00
12219;BME280;6172;42.646;23.344;2023-01-26T01:50:56;95012.16;;;-2.99;100.00
12219;BME280;6172;42.646;23.344;2023-01-26T01:53:28;95019.09;;;-2.98;100.00
12219;BME280;6172;42.646;23.344;2023-01-26T01:56:05;95032.84;;;-2.96;100.00
12219;BME280;6172;42.646;23.344;2023-01-26T01:58:40;95008.38;;;-2.90;100.00
12219;BME280;6172;42.646;23.344;2023-01-26T02:01:14;95009.00;;;-2.93;100.00
12219;BME280;6172;42.646;23.344;2023-01-26T02:03:45;95019.38;;;-2.91;100.00
12219;BME280;6172;42.646;23.344;2023-01-26T02:06:15;95009.34;;;-2.94;100.00
12219;BME280;6172;42.646;23.344;2023-01-26T02:08:48;94996.59;;;-2.89;100.00
12219;BME280;6172;42.646;23.344;2023-01-26T02:11:26;94994.34;;;-3.07;100.00
12219;BME280;6172;42.646;23.344;2023-01-26T02:13:59;94987.38;;;-2.91;100.00
12219;BME280;6172;42.646;23.344;2023-01-26T02:16:34;94990.19;;;-2.96;100.00
12219;BME280;6172;42.646;23.344;2023-01-26T02:19:09;94988.31;;;-2.96;100.00
12219;BME280;6172;42.646;23.344;2023-01-26T02:21:47;94981.31;;;-3.09;100.00
12219;BME280;6172;42.646;23.344;2023-01-26T02:24:34;94974.56;;;-3.06;100.00
12219;BME280;6172;42.646;23.344;2023-01-26T02:27:08;94959.03;;;-3.04;100.00
12219;BME280;6172;42.646;23.344;2023-01-26T02:29:43;94962.63;;;-3.00;100.00
12219;BME280;6172;42.646;23.344;2023-01-26T02:32:13;94964.97;;;-2.99;100.00
12219;BME280;6172;42.646;23.344;2023-01-26T02:34:41;94949.81;;;-3.07;100.00
12219;BME280;6172;42.646;23.344;2023-01-26T02:37:23;94963.91;;;-3.06;100.00
12219;BME280;6172;42.646;23.344;2023-01-26T02:39:57;94958.56;;;-3.06;100.00
12219;BME280;6172;42.646;23.344;2023-01-26T02:42:28;94963.94;;;-3.15;100.00
12219;BME280;6172;42.646;23.344;2023-01-26T02:45:04;94946.53;;;-3.12;100.00
12219;BME280;6172;42.646;23.344;2023-01-26T02:47:46;94958.59;;;-3.15;100.00
12219;BME280;6172;42.646;23.344;2023-01-26T02:50:16;94951.72;;;-3.16;100.00
12219;BME280;6172;42.646;23.344;2023-01-26T02:52:45;94944.22;;;-3.22;100.00
12219;BME280;6172;42.646;23.344;2023-01-26T02:55:13;94947.00;;;-3.10;100.00
12219;BME280;6172;42.646;23.344;2023-01-26T02:58:04;94929.59;;;-3.16;100.00
12219;BME280;6172;42.646;23.344;2023-01-26T03:00:35;94940.41;;;-3.13;100.00
12219;BME280;6172;42.646;23.344;2023-01-26T03:03:12;94934.56;;;-3.06;100.00
12219;BME280;6172;42.646;23.344;2023-01-26T03:05:52;94920.00;;;-3.09;100.00
12219;BME280;6172;42.646;23.344;2023-01-26T03:08:42;94929.84;;;-3.01;100.00
12219;BME280;6172;42.646;23.344;2023-01-26T03:11:55;94926.09;;;-3.00;100.00
12219;BME280;6172;42.646;23.344;2023-01-26T03:14:30;94908.91;;;-2.90;100.00
12219;BME280;6172;42.646;23.344;2023-01-26T03:16:58;94909.25;;;-2.92;100.00
12219;BME280;6172;42.646;23.344;2023-01-26T03:19:33;94915.22;;;-2.95;100.00
12219;BME280;6172;42.646;23.344;2023-01-26T03:22:29;94908.44;;;-3.13;100.00
12219;BME280;6172;42.646;23.344;2023-01-26T03:25:16;94890.84;;;-3.05;100.00
12219;BME280;6172;42.646;23.344;2023-01-26T03:28:10;94893.66;;;-3.10;100.00
12219;BME280;6172;42.646;23.344;2023-01-26T03:34:06;94881.91;;;-3.09;100.00
12219;BME280;6172;42.646;23.344;2023-01-26T03:36:50;94892.06;;;-3.03;100.00
12219;BME280;6172;42.646;23.344;2023-01-26T03:39:24;94887.69;;;-3.07;100.00
12219;BME280;6172;42.646;23.344;2023-01-26T03:42:21;94891.16;;;-3.07;100.00
12219;BME280;6172;42.646;23.344;2023-01-26T03:45:09;94880.03;;;-3.09;100.00
12219;BME280;6172;42.646;23.344;2023-01-26T03:48:07;94884.84;;;-3.02;100.00
12219;BME280;6172;42.646;23.344;2023-01-26T03:50:56;94887.06;;;-3.04;100.00
12219;BME280;6172;42.646;23.344;2023-01-26T03:53:46;94877.88;;;-2.95;100.00
12219;BME280;6172;42.646;23.344;2023-01-26T03:56:31;94873.56;;;-3.08;100.00
12219;BME280;6172;42.646;23.344;2023-01-26T03:59:12;94871.53;;;-3.02;100.00
12219;BME280;6172;42.646;23.344;2023-01-26T04:02:30;94865.94;;;-2.89;100.00
12219;BME280;6172;42.646;23.344;2023-01-26T04:05:52;94869.88;;;-2.95;100.00
12219;BME280;6172;42.646;23.344;2023-01-26T04:08:46;94868.91;;;-2.90;100.00
12219;BME280;6172;42.646;23.344;2023-01-26T04:11:23;94860.09;;;-2.82;100.00
12219;BME280;6172;42.646;23.344;2023-01-26T04:13:58;94856.94;;;-3.05;100.00
12219;BME280;6172;42.646;23.344;2023-01-26T04:16:52;94853.31;;;-3.00;100.00
12219;BME280;6172;42.646;23.344;2023-01-26T04:19:41;94845.19;;;-3.04;100.00
12219;BME280;6172;42.646;23.344;2023-01-26T04:22:39;94837.56;;;-2.93;100.00
12219;BME280;6172;42.646;23.344;2023-01-26T04:25:28;94833.84;;;-3.01;100.00
12219;BME280;6172;42.646;23.344;2023-01-26T04:28:09;94823.47;;;-2.94;100.00
12219;BME280;6172;42.646;23.344;2023-01-26T04:30:40;94835.38;;;-2.91;100.00
12219;BME280;6172;42.646;23.344;2023-01-26T04:33:24;94825.22;;;-2.98;100.00
12219;BME280;6172;42.646;23.344;2023-01-26T04:36:08;94829.00;;;-2.99;100.00
12219;BME280;6172;42.646;23.344;2023-01-26T04:38:39;94817.69;;;-2.96;100.00
12219;BME280;6172;42.646;23.344;2023-01-26T04:41:08;94820.03;;;-2.94;100.00
12219;BME280;6172;42.646;23.344;2023-01-26T04:43:40;94821.97;;;-2.83;100.00
12219;BME280;6172;42.646;23.344;2023-01-26T04:46:13;94829.19;;;-2.83;100.00
12219;BME280;6172;42.646;23.344;2023-01-26T04:49:00;94828.84;;;-2.82;100.00
12219;BME280;6172;42.646;23.344;2023-01-26T04:51:33;94818.50;;;-2.83;100.00
12219;BME280;6172;42.646;23.344;2023-01-26T04:54:01;94824.81;;;-2.88;100.00
12219;BME280;6172;42.646;23.344;2023-01-26T04:56:52;94825.94;;;-2.89;100.00
12219;BME280;6172;42.646;23.344;2023-01-26T04:59:29;94835.13;;;-2.98;100.00
12219;BME280;6172;42.646;23.344;2023-01-26T05:02:01;94830.38;;;-2.93;100.00
12219;BME280;6172;42.646;23.344;2023-01-26T05:04:43;94836.50;;;-2.92;100.00
12219;BME280;6172;42.646;23.344;2023-01-26T05:07:30;94826.06;;;-2.85;100.00
12219;BME280;6172;42.646;23.344;2023-01-26T05:10:34;94826.91;;;-2.73;100.00
12219;BME280;6172;42.646;23.344;2023-01-26T05:13:21;94811.88;;;-2.77;100.00
12219;BME280;6172;42.646;23.344;2023-01-26T05:16:02;94817.78;;;-2.72;100.00
12219;BME280;6172;42.646;23.344;2023-01-26T05:18:46;94818.97;;;-2.81;100.00
12219;BME280;6172;42.646;23.344;2023-01-26T05:21:16;94816.72;;;-2.71;100.00
12219;BME280;6172;42.646;23.344;2023-01-26T05:23:48;94821.50;;;-2.85;100.00
12219;BME280;6172;42.646;23.344;2023-01-26T05:26:33;94812.41;;;-2.84;100.00
12219;BME280;6172;42.646;23.344;2023-01-26T05:29:33;94816.31;;;-2.81;100.00
12219;BME280;6172;42.646;23.344;2023-01-26T05:32:05;94820.03;;;-2.74;100.00
12219;BME280;6172;42.646;23.344;2023-01-26T05:34:37;94810.38;;;-2.66;100.00
12219;BME280;6172;42.646;23.344;2023-01-26T05:37:18;94806.63;;;-2.65;100.00
12219;BME280;6172;42.646;23.344;2023-01-26T05:39:54;94806.94;;;-2.67;100.00
12219;BME280;6172;42.646;23.344;2023-01-26T05:42:25;94810.56;;;-2.71;100.00
12219;BME280;6172;42.646;23.344;2023-01-26T05:45:01;94821.56;;;-2.73;100.00
12219;BME280;6172;42.646;23.344;2023-01-26T05:47:37;94810.91;;;-2.73;100.00
12219;BME280;6172;42.646;23.344;2023-01-26T05:50:15;94805.63;;;-2.61;100.00
12219;BME280;6172;42.646;23.344;2023-01-26T05:52:51;94813.81;;;-2.66;100.00
12219;BME280;6172;42.646;23.344;2023-01-26T05:55:25;94816.38;;;-2.69;100.00
12219;BME280;6172;42.646;23.344;2023-01-26T05:57:59;94808.50;;;-2.66;100.00
12219;BME280;6172;42.646;23.344;2023-01-26T06:00:36;94813.88;;;-2.54;100.00
12219;BME280;6172;42.646;23.344;2023-01-26T06:03:14;94812.59;;;-2.68;100.00
12219;BME280;6172;42.646;23.344;2023-01-26T06:06:00;94812.91;;;-2.70;100.00
12219;BME280;6172;42.646;23.344;2023-01-26T06:08:33;94807.03;;;-2.63;100.00
12219;BME280;6172;42.646;23.344;2023-01-26T06:11:02;94811.97;;;-2.53;100.00
12219;BME280;6172;42.646;23.344;2023-01-26T06:13:33;94807.44;;;-2.53;100.00
12219;BME280;6172;42.646;23.344;2023-01-26T06:16:05;94808.97;;;-2.52;100.00
12219;BME280;6172;42.646;23.344;2023-01-26T06:18:33;94798.63;;;-2.53;100.00
12219;BME280;6172;42.646;23.344;2023-01-26T06:21:07;94807.84;;;-2.63;100.00
12219;BME280;6172;42.646;23.344;2023-01-26T06:23:38;94810.66;;;-2.47;100.00
12219;BME280;6172;42.646;23.344;2023-01-26T06:26:09;94805.88;;;-2.54;100.00
12219;BME280;6172;42.646;23.344;2023-01-26T06:28:42;94802.50;;;-2.63;100.00
12219;BME280;6172;42.646;23.344;2023-01-26T06:31:29;94798.06;;;-2.59;100.00
12219;BME280;6172;42.646;23.344;2023-01-26T06:34:11;94784.63;;;-2.50;100.00
12219;BME280;6172;42.646;23.344;2023-01-26T06:36:58;94784.53;;;-2.54;100.00
12219;BME280;6172;42.646;23.344;2023-01-26T06:39:41;94789.22;;;-2.51;100.00
12219;BME280;6172;42.646;23.344;2023-01-26T06:42:14;94785.75;;;-2.51;100.00
12219;BME280;6172;42.646;23.344;2023-01-26T06:44:41;94777.09;;;-2.48;100.00
12219;BME280;6172;42.646;23.344;2023-01-26T06:47:10;94781.41;;;-2.56;100.00
12219;BME280;6172;42.646;23.344;2023-01-26T06:49:38;94788.19;;;-2.46;100.00
12219;BME280;6172;42.646;23.344;2023-01-26T06:52:26;94791.47;;;-2.41;100.00
12219;BME280;6172;42.646;23.344;2023-01-26T06:54:57;94782.81;;;-2.38;100.00
12219;BME280;6172;42.646;23.344;2023-01-26T06:57:26;94778.78;;;-2.32;100.00
12219;BME280;6172;42.646;23.344;2023-01-26T06:59:54;94775.81;;;-2.30;100.00
12219;BME280;6172;42.646;23.344;2023-01-26T07:02:29;94767.44;;;-2.41;100.00
12219;BME280;6172;42.646;23.344;2023-01-26T07:05:01;94765.53;;;-2.40;100.00
12219;BME280;6172;42.646;23.344;2023-01-26T07:07:35;94766.91;;;-2.34;100.00
12219;BME280;6172;42.646;23.344;2023-01-26T07:10:07;94769.28;;;-2.53;100.00
12219;BME280;6172;42.646;23.344;2023-01-26T07:12:53;94765.25;;;-2.27;100.00
12219;BME280;6172;42.646;23.344;2023-01-26T07:15:21;94774.16;;;-2.23;100.00
12219;BME280;6172;42.646;23.344;2023-01-26T07:17:52;94772.06;;;-2.17;100.00
12219;BME280;6172;42.646;23.344;2023-01-26T07:20:35;94767.78;;;-2.30;100.00
12219;BME280;6172;42.646;23.344;2023-01-26T07:23:03;94760.03;;;-2.23;100.00
12219;BME280;6172;42.646;23.344;2023-01-26T07:25:33;94760.72;;;-2.26;100.00
12219;BME280;6172;42.646;23.344;2023-01-26T07:28:01;94763.72;;;-2.16;100.00
12219;BME280;6172;42.646;23.344;2023-01-26T07:30:30;94740.34;;;-2.31;100.00
12219;BME280;6172;42.646;23.344;2023-01-26T07:33:00;94762.50;;;-2.18;100.00
12219;BME280;6172;42.646;23.344;2023-01-26T07:35:34;94752.38;;;-2.13;100.00
12219;BME280;6172;42.646;23.344;2023-01-26T07:38:03;94754.59;;;-2.15;100.00
12219;BME280;6172;42.646;23.344;2023-01-26T07:40:33;94747.81;;;-2.12;100.00
12219;BME280;6172;42.646;23.344;2023-01-26T07:43:04;94754.16;;;-2.17;100.00
12219;BME280;6172;42.646;23.344;2023-01-26T07:45:31;94738.13;;;-2.17;100.00
12219;BME280;6172;42.646;23.344;2023-01-26T07:48:08;94742.34;;;-2.16;100.00
12219;BME280;6172;42.646;23.344;2023-01-26T07:53:44;94740.81;;;-2.05;100.00
12219;BME280;6172;42.646;23.344;2023-01-26T07:56:38;94753.81;;;-2.15;100.00
12219;BME280;6172;42.646;23.344;2023-01-26T07:59:31;94750.91;;;-2.10;100.00
12219;BME280;6172;42.646;23.344;2023-01-26T08:02:19;94737.25;;;-2.09;100.00
12219;BME280;6172;42.646;23.344;2023-01-26T08:04:48;94735.81;;;-2.06;100.00
12219;BME280;6172;42.646;23.344;2023-01-26T08:07:16;94730.81;;;-2.08;100.00
12219;BME280;6172;42.646;23.344;2023-01-26T08:09:44;94742.03;;;-2.02;100.00
12219;BME280;6172;42.646;23.344;2023-01-26T08:12:12;94730.56;;;-2.03;100.00
12219;BME280;6172;42.646;23.344;2023-01-26T08:14:47;94728.38;;;-2.01;100.00
12219;BME280;6172;42.646;23.344;2023-01-26T08:17:17;94725.13;;;-1.94;100.00
12219;BME280;6172;42.646;23.344;2023-01-26T08:20:00;94714.09;;;-1.93;100.00
12219;BME280;6172;42.646;23.344;2023-01-26T08:22:42;94724.59;;;-1.88;100.00
12219;BME280;6172;42.646;23.344;2023-01-26T08:25:26;94723.66;;;-1.92;100.00
12219;BME280;6172;42.646;23.344;2023-01-26T08:28:07;94733.47;;;-1.84;100.00
12219;BME280;6172;42.646;23.344;2023-01-26T08:30:34;94718.00;;;-1.90;100.00
12219;BME280;6172;42.646;23.344;2023-01-26T08:33:04;94713.78;;;-1.91;100.00
12219;BME280;6172;42.646;23.344;2023-01-26T08:35:57;94713.69;;;-1.95;100.00
12219;BME280;6172;42.646;23.344;2023-01-26T08:38:58;94693.09;;;-1.82;100.00
12219;BME280;6172;42.646;23.344;2023-01-26T08:41:29;94691.88;;;-1.85;100.00
12219;BME280;6172;42.646;23.344;2023-01-26T08:44:06;94703.09;;;-1.91;100.00
12219;BME280;6172;42.646;23.344;2023-01-26T08:46:38;94710.53;;;-1.73;100.00
12219;BME280;6172;42.646;23.344;2023-01-26T08:49:05;94699.31;;;-1.78;100.00
12219;BME280;6172;42.646;23.344;2023-01-26T08:51:34;94698.53;;;-1.91;100.00
12219;BME280;6172;42.646;23.344;2023-01-26T08:54:04;94709.19;;;-1.79;100.00
12219;BME280;6172;42.646;23.344;2023-01-26T08:56:50;94706.66;;;-1.75;100.00
12219;BME280;6172;42.646;23.344;2023-01-26T08:59:24;94715.88;;;-1.60;100.00
12219;BME280;6172;42.646;23.344;2023-01-26T09:01:52;94708.81;;;-1.41;100.00
12219;BME280;6172;42.646;23.344;2023-01-26T09:07:26;94721.22;;;-1.48;100.00
12219;BME280;6172;42.646;23.344;2023-01-26T09:09:54;94706.28;;;-1.49;100.00
12219;BME280;6172;42.646;23.344;2023-01-26T09:12:21;94701.59;;;-1.40;100.00
12219;BME280;6172;42.646;23.344;2023-01-26T09:14:50;94698.78;;;-1.44;100.00
12219;BME280;6172;42.646;23.344;2023-01-26T09:17:17;94705.72;;;-1.43;100.00
12219;BME280;6172;42.646;23.344;2023-01-26T09:19:45;94705.59;;;-1.46;100.00
12219;BME280;6172;42.646;23.344;2023-01-26T09:22:15;94698.91;;;-1.40;100.00
12219;BME280;6172;42.646;23.344;2023-01-26T09:24:44;94694.81;;;-1.50;100.00
12219;BME280;6172;42.646;23.344;2023-01-26T09:27:14;94695.69;;;-1.46;100.00
12219;BME280;6172;42.646;23.344;2023-01-26T09:29:42;94692.25;;;-1.46;100.00
12219;BME280;6172;42.646;23.344;2023-01-26T09:32:09;94680.59;;;-1.66;100.00
12219;BME280;6172;42.646;23.344;2023-01-26T09:34:40;94668.88;;;-1.49;100.00
12219;BME280;6172;42.646;23.344;2023-01-26T09:37:08;94676.66;;;-1.44;100.00
12219;BME280;6172;42.646;23.344;2023-01-26T09:39:35;94664.03;;;-1.32;100.00
12219;BME280;6172;42.646;23.344;2023-01-26T09:45:20;94675.34;;;-1.50;100.00
12219;BME280;6172;42.646;23.344;2023-01-26T09:48:05;94673.94;;;-1.32;100.00
12219;BME280;6172;42.646;23.344;2023-01-26T09:50:38;94668.16;;;-1.34;100.00
12219;BME280;6172;42.646;23.344;2023-01-26T09:53:13;94646.13;;;-1.43;100.00
12219;BME280;6172;42.646;23.344;2023-01-26T09:55:44;94645.63;;;-1.21;100.00
12219;BME280;6172;42.646;23.344;2023-01-26T09:58:21;94648.88;;;-1.28;100.00
12219;BME280;6172;42.646;23.344;2023-01-26T10:00:58;94652.56;;;-1.32;100.00
12219;BME280;6172;42.646;23.344;2023-01-26T10:03:32;94651.50;;;-1.16;100.00
12219;BME280;6172;42.646;23.344;2023-01-26T10:06:10;94651.25;;;-1.11;100.00
12219;BME280;6172;42.646;23.344;2023-01-26T10:08:42;94640.81;;;-1.16;100.00
12219;BME280;6172;42.646;23.344;2023-01-26T10:11:27;94641.16;;;-1.17;100.00
12219;BME280;6172;42.646;23.344;2023-01-26T10:14:05;94656.75;;;-1.19;100.00
12219;BME280;6172;42.646;23.344;2023-01-26T10:16:47;94633.53;;;-1.15;100.00
12219;BME280;6172;42.646;23.344;2023-01-26T10:19:30;94635.19;;;-1.11;100.00
12219;BME280;6172;42.646;23.344;2023-01-26T10:24:54;94595.16;;;-1.23;100.00
12219;BME280;6172;42.646;23.344;2023-01-26T10:27:23;94591.25;;;-1.25;100.00
12219;BME280;6172;42.646;23.344;2023-01-26T10:29:59;94583.03;;;-1.32;100.00
12219;BME280;6172;42.646;23.344;2023-01-26T10:32:27;94594.81;;;-1.21;100.00
12219;BME280;6172;42.646;23.344;2023-01-26T10:34:54;94592.22;;;-1.18;100.00
12219;BME280;6172;42.646;23.344;2023-01-26T10:37:49;94563.72;;;-1.41;100.00
12219;BME280;6172;42.646;23.344;2023-01-26T10:40:21;94574.72;;;-1.15;100.00
12219;BME280;6172;42.646;23.344;2023-01-26T10:43:28;94553.28;;;-1.03;100.00
12219;BME280;6172;42.646;23.344;2023-01-26T10:46:24;94552.75;;;-0.93;100.00
12219;BME280;6172;42.646;23.344;2023-01-26T10:48:58;94524.81;;;-1.11;100.00
12219;BME280;6172;42.646;23.344;2023-01-26T10:51:29;94536.03;;;-0.90;100.00
12219;BME280;6172;42.646;23.344;2023-01-26T10:54:21;94532.66;;;-0.87;100.00
12219;BME280;6172;42.646;23.344;2023-01-26T10:56:52;94525.16;;;-0.97;100.00
12219;BME280;6172;42.646;23.344;2023-01-26T10:59:30;94511.34;;;-0.99;100.00
12219;BME280;6172;42.646;23.344;2023-01-26T11:02:19;94518.84;;;-1.05;100.00
12219;BME280;6172;42.646;23.344;2023-01-26T11:05:21;94500.66;;;-0.84;100.00
12219;BME280;6172;42.646;23.344;2023-01-26T11:07:50;94494.94;;;-0.82;100.00
12219;BME280;6172;42.646;23.344;2023-01-26T11:10:24;94490.22;;;-0.89;100.00
12219;BME280;6172;42.646;23.344;2023-01-26T11:13:12;94489.00;;;-0.76;100.00
12219;BME280;6172;42.646;23.344;2023-01-26T11:16:02;94481.81;;;-0.72;100.00
12219;BME280;6172;42.646;23.344;2023-01-26T11:18:40;94462.75;;;-0.86;100.00
12219;BME280;6172;42.646;23.344;2023-01-26T11:21:14;94455.94;;;-0.83;100.00
12219;BME280;6172;42.646;23.344;2023-01-26T11:23:51;94455.78;;;-0.90;100.00
12219;BME280;6172;42.646;23.344;2023-01-26T11:29:56;94452.41;;;-0.87;100.00
12219;BME280;6172;42.646;23.344;2023-01-26T11:32:32;94462.25;;;-0.91;100.00
12219;BME280;6172;42.646;23.344;2023-01-26T11:35:12;94453.97;;;-0.86;100.00
12219;BME280;6172;42.646;23.344;2023-01-26T11:37:44;94448.50;;;-0.74;100.00
12219;BME280;6172;42.646;23.344;2023-01-26T11:40:23;94448.50;;;-0.74;100.00
12219;BME280;6172;42.646;23.344;2023-01-26T11:46:01;94441.28;;;-0.55;100.00
12219;BME280;6172;42.646;23.344;2023-01-26T11:48:37;94448.13;;;-0.57;100.00
12219;BME280;6172;42.646;23.344;2023-01-26T11:51:11;94436.41;;;-0.68;100.00
12219;BME280;6172;42.646;23.344;2023-01-26T11:56:44;94440.72;;;-0.64;100.00
12219;BME280;6172;42.646;23.344;2023-01-26T11:59:18;94441.09;;;-0.65;100.00
12219;BME280;6172;42.646;23.344;2023-01-26T12:01:55;94434.84;;;-0.54;100.00
12219;BME280;6172;42.646;23.344;2023-01-26T12:04:25;94434.31;;;-0.59;100.00
12219;BME280;6172;42.646;23.344;2023-01-26T12:07:02;94428.97;;;-0.59;100.00
12219;BME280;6172;42.646;23.344;2023-01-26T12:09:35;94421.75;;;-0.74;100.00
12219;BME280;6172;42.646;23.344;2023-01-26T12:12:16;94411.66;;;-0.65;100.00
12219;BME280;6172;42.646;23.344;2023-01-26T12:14:59;94414.97;;;-0.87;100.00
12219;BME280;6172;42.646;23.344;2023-01-26T12:17:32;94414.56;;;-0.70;100.00
12219;BME280;6172;42.646;23.344;2023-01-26T12:20:16;94399.22;;;-0.73;100.00
12219;BME280;6172;42.646;23.344;2023-01-26T12:23:03;94401.94;;;-0.54;100.00
12219;BME280;6172;42.646;23.344;2023-01-26T12:25:33;94388.47;;;-0.58;100.00
12219;BME280;6172;42.646;23.344;2023-01-26T12:28:09;94388.97;;;-0.71;100.00
12219;BME280;6172;42.646;23.344;2023-01-26T12:30:45;94378.94;;;-0.74;100.00
12219;BME280;6172;42.646;23.344;2023-01-26T12:33:14;94383.00;;;-0.80;100.00
12219;BME280;6172;42.646;23.344;2023-01-26T12:35:50;94379.78;;;-0.70;100.00
12219;BME280;6172;42.646;23.344;2023-01-26T12:38:29;94377.81;;;-0.73;100.00
12219;BME280;6172;42.646;23.344;2023-01-26T12:41:07;94383.91;;;-0.57;100.00
12219;BME280;6172;42.646;23.344;2023-01-26T12:44:02;94367.47;;;-0.75;100.00
12219;BME280;6172;42.646;23.344;2023-01-26T12:46:36;94379.78;;;-0.70;100.00
12219;BME280;6172;42.646;23.344;2023-01-26T12:49:24;94381.91;;;-0.60;100.00
12219;BME280;6172;42.646;23.344;2023-01-26T12:52:06;94372.34;;;-0.61;100.00
12219;BME280;6172;42.646;23.344;2023-01-26T12:54:43;94375.66;;;-0.49;100.00
12219;BME280;6172;42.646;23.344;2023-01-26T12:57:19;94372.16;;;-0.53;100.00
12219;BME280;6172;42.646;23.344;2023-01-26T12:59:49;94361.50;;;-0.68;100.00
12219;BME280;6172;42.646;23.344;2023-01-26T13:02:47;94356.84;;;-0.71;100.00
12219;BME280;6172;42.646;23.344;2023-01-26T13:05:26;94361.50;;;-0.68;100.00
12219;BME280;6172;42.646;23.344;2023-01-26T13:18:08;94360.22;;;-0.74;100.00
12219;BME280;6172;42.646;23.344;2023-01-26T13:20:45;94368.09;;;-0.81;100.00
12219;BME280;6172;42.646;23.344;2023-01-26T13:23:37;94365.69;;;-0.86;100.00
12219;BME280;6172;42.646;23.344;2023-01-26T13:31:59;94351.41;;;-0.75;100.00
12219;BME280;6172;42.646;23.344;2023-01-26T13:34:34;94346.41;;;-0.76;100.00
12219;BME280;6172;42.646;23.344;2023-01-26T13:37:13;94341.59;;;-0.86;100.00
12219;BME280;6172;42.646;23.344;2023-01-26T13:39:45;94329.72;;;-0.89;100.00
12219;BME280;6172;42.646;23.344;2023-01-26T13:42:19;94331.94;;;-0.91;100.00
12219;BME280;6172;42.646;23.344;2023-01-26T13:44:56;94336.69;;;-0.84;100.00
12219;BME280;6172;42.646;23.344;2023-01-26T13:47:27;94340.06;;;-0.87;100.00
12219;BME280;6172;42.646;23.344;2023-01-26T13:50:20;94333.38;;;-0.78;100.00
12219;BME280;6172;42.646;23.344;2023-01-26T13:52:49;94339.66;;;-0.70;100.00
12219;BME280;6172;42.646;23.344;2023-01-26T13:55:26;94329.94;;;-0.78;100.00
12219;BME280;6172;42.646;23.344;2023-01-26T13:58:11;94329.41;;;-0.68;100.00
12219;BME280;6172;42.646;23.344;2023-01-26T14:00:39;94315.66;;;-0.67;100.00
12219;BME280;6172;42.646;23.344;2023-01-26T14:03:19;94317.34;;;-0.59;100.00
12219;BME280;6172;42.646;23.344;2023-01-26T14:05:56;94289.88;;;-0.56;100.00
12219;BME280;6172;42.646;23.344;2023-01-26T14:08:26;94302.69;;;-0.65;100.00
12219;BME280;6172;42.646;23.344;2023-01-26T14:10:55;94300.94;;;-0.57;100.00
12219;BME280;6172;42.646;23.344;2023-01-26T14:13:46;94291.72;;;-0.41;100.00
12219;BME280;6172;42.646;23.344;2023-01-26T14:16:31;94284.75;;;-0.45;100.00
12219;BME280;6172;42.646;23.344;2023-01-26T14:19:14;94291.63;;;-0.44;100.00
12219;BME280;6172;42.646;23.344;2023-01-26T14:21:49;94280.94;;;-0.44;100.00